Time;durP1;ratioP1;P1;durP2;ratioP2;P2;SDS_P1;SDS_P2;PMS_P1;PMS_P2;Temp;Humidity;BMP_temperature;BMP_pressure;BME280_temperature;BME280_humidity;BME280_pressure;Samples;Min_cycle;Max_cycle;Signal;HPM_P1;HPM_P2
2023/05/03 00:00:55;;;;;;;5.05;3.88;;;9.70;99.90;;;;;;5091861;28;20550;-47
2023/05/03 00:03:22;;;;;;;7.63;3.72;;;9.60;99.90;;;;;;5092491;28;20044;-46
2023/05/03 00:05:49;;;;;;;6.03;3.50;;;9.60;99.90;;;;;;5073937;28;20112;-46
2023/05/03 00:08:16;;;;;;;8.25;3.88;;;9.60;99.90;;;;;;5061893;28;20048;-46
2023/05/03 00:10:43;;;;;;;5.70;3.85;;;9.60;99.90;;;;;;5084632;28;20036;-46
2023/05/03 00:13:09;;;;;;;7.05;3.65;;;9.60;99.90;;;;;;5091786;28;20109;-47
2023/05/03 00:15:36;;;;;;;6.18;3.97;;;9.60;99.90;;;;;;5091994;28;20044;-46
2023/05/03 00:18:03;;;;;;;5.15;3.60;;;9.50;99.90;;;;;;5079912;28;20134;-47
2023/05/03 00:20:29;;;;;;;5.82;3.67;;;9.50;99.90;;;;;;5091578;28;20068;-47
2023/05/03 00:22:56;;;;;;;4.47;3.40;;;9.50;99.90;;;;;;5091307;28;20048;-46
2023/05/03 00:25:23;;;;;;;6.13;4.00;;;9.50;99.90;;;;;;5092008;28;20043;-47
2023/05/03 00:27:49;;;;;;;6.57;3.55;;;9.50;99.90;;;;;;5084023;28;20040;-48
2023/05/03 00:30:18;;;;;;;6.00;3.55;;;9.50;99.90;;;;;;5090176;28;20512;-47
2023/05/03 00:32:44;;;;;;;4.35;3.75;;;9.50;99.90;;;;;;5088955;28;20084;-47
2023/05/03 00:35:11;;;;;;;5.10;3.45;;;9.50;99.90;;;;;;5057075;28;20459;-47
2023/05/03 00:37:38;;;;;;;7.82;3.47;;;9.50;99.90;;;;;;5089493;28;20040;-46
2023/05/03 00:40:06;;;;;;;6.25;3.58;;;9.40;99.90;;;;;;5088998;28;20059;-46
2023/05/03 00:42:35;;;;;;;7.93;3.40;;;9.50;99.90;;;;;;5081733;28;20483;-46
2023/05/03 00:45:04;;;;;;;4.90;3.50;;;9.50;99.90;;;;;;5061030;28;20409;-46
2023/05/03 00:47:32;;;;;;;7.50;3.70;;;9.50;99.90;;;;;;5063924;28;20078;-47
2023/05/03 00:49:59;;;;;;;4.38;3.10;;;9.50;99.90;;;;;;5098372;28;20058;-46
2023/05/03 00:52:27;;;;;;;4.93;3.70;;;9.50;99.90;;;;;;5070235;28;20048;-47
2023/05/03 00:54:54;;;;;;;8.85;4.80;;;9.50;99.90;;;;;;5061520;28;20127;-47
2023/05/03 00:57:21;;;;;;;;;;;9.50;99.90;;;;;;5056641;28;20048;-47
2023/05/03 00:59:48;;;;;;;8.27;5.47;;;9.50;99.90;;;;;;5049523;28;19920;-47
2023/05/03 01:02:15;;;;;;;6.82;4.93;;;9.50;99.90;;;;;;5050797;28;20474;-47
2023/05/03 01:04:42;;;;;;;7.80;5.20;;;9.50;99.90;;;;;;5081274;28;20036;-48
2023/05/03 01:07:15;;;;;;;7.10;4.40;;;9.60;99.90;;;;;;5090849;28;20036;-48
2023/05/03 01:09:55;;;;;;;5.13;4.00;;;9.50;99.90;;;;;;5072476;28;20101;-47
2023/05/03 01:12:46;;;;;;;4.80;3.60;;;10.00;99.90;;;;;;5089565;28;20086;-47
2023/05/03 01:15:39;;;;;;;5.95;3.28;;;9.50;99.90;;;;;;5090987;28;20075;-47
2023/05/03 01:18:11;;;;;;;5.20;3.03;;;9.50;99.90;;;;;;5073287;28;20049;-47
2023/05/03 01:20:42;;;;;;;6.65;3.55;;;9.50;99.90;;;;;;5064108;28;20398;-47
2023/05/03 01:23:31;;;;;;;4.88;3.33;;;9.50;99.90;;;;;;5071626;28;20066;-46
2023/05/03 01:25:59;;;;;;;7.13;3.20;;;9.50;99.90;;;;;;5090677;28;20067;-46
2023/05/03 01:28:26;;;;;;;5.38;3.85;;;9.50;99.90;;;;;;5088190;28;20071;-46
2023/05/03 01:30:55;;;;;;;;;;;9.50;99.90;;;;;;5089938;28;20048;-47
2023/05/03 01:33:35;;;;;;;5.70;3.03;;;9.50;99.90;;;;;;5076212;28;19924;-46
2023/05/03 01:36:12;;;;;;;3.00;2.55;;;9.50;99.90;;;;;;5089704;28;20416;-47
2023/05/03 01:38:39;;;;;;;7.95;3.67;;;9.50;99.90;;;;;;5093211;28;20048;-47
2023/05/03 01:41:12;;;;;;;4.28;2.85;;;9.50;99.90;;;;;;5084275;28;20053;-46
2023/05/03 01:43:39;;;;;;;3.65;2.85;;;9.50;99.90;;;;;;5064958;28;20500;-47
2023/05/03 01:46:06;;;;;;;3.97;2.55;;;9.50;99.90;;;;;;5074895;28;20079;-46
2023/05/03 01:48:33;;;;;;;5.22;3.38;;;9.50;99.90;;;;;;5068474;28;20512;-46
2023/05/03 01:51:01;;;;;;;4.57;3.13;;;9.50;99.90;;;;;;5092396;28;20052;-46
2023/05/03 01:53:28;;;;;;;4.93;3.13;;;9.50;99.90;;;;;;5094826;28;20090;-46
2023/05/03 01:55:54;;;;;;;5.55;2.75;;;9.50;99.90;;;;;;5080765;28;20068;-47
2023/05/03 01:58:21;;;;;;;3.83;2.80;;;9.50;99.90;;;;;;5094305;28;20043;-47
2023/05/03 02:00:48;;;;;;;3.55;2.90;;;9.50;99.90;;;;;;5089462;28;20101;-47
2023/05/03 02:03:15;;;;;;;6.57;2.67;;;9.50;99.90;;;;;;5073332;28;20045;-46
2023/05/03 02:05:41;;;;;;;5.22;2.83;;;9.50;99.90;;;;;;5076556;28;20044;-47
2023/05/03 02:08:08;;;;;;;3.88;2.67;;;9.40;99.90;;;;;;5093084;28;20558;-47
2023/05/03 02:10:35;;;;;;;6.10;2.70;;;9.40;99.90;;;;;;5093076;28;20090;-46
2023/05/03 02:13:02;;;;;;;6.00;3.10;;;9.40;99.90;;;;;;5094563;28;20048;-47
2023/05/03 02:15:29;;;;;;;3.97;3.17;;;9.40;99.90;;;;;;5069198;28;20033;-46
2023/05/03 02:17:57;;;;;;;5.90;3.45;;;9.40;99.90;;;;;;5076972;28;20064;-47
2023/05/03 02:20:24;;;;;;;7.80;3.40;;;9.40;99.90;;;;;;5092829;28;20051;-47
2023/05/03 02:22:50;;;;;;;6.20;4.75;;;9.40;99.90;;;;;;5092971;28;20488;-46
2023/05/03 02:25:18;;;;;;;7.15;4.80;;;9.40;99.90;;;;;;5094199;28;20047;-46
2023/05/03 02:27:44;;;;;;;6.05;4.63;;;9.40;99.90;;;;;;5062357;28;20390;-47
2023/05/03 02:30:12;;;;;;;9.68;5.50;;;9.50;99.90;;;;;;5072990;28;20110;-46
2023/05/03 02:32:42;;;;;;;9.13;6.32;;;9.50;99.90;;;;;;5072296;28;20067;-51
2023/05/03 02:35:09;;;;;;;;;;;9.40;99.90;;;;;;5091598;28;20097;-47
2023/05/03 02:37:36;;;;;;;6.40;3.25;;;9.40;99.90;;;;;;5092636;28;19946;-47
2023/05/03 02:40:08;;;;;;;5.60;3.92;;;9.50;99.90;;;;;;5092500;28;20040;-47
2023/05/03 02:42:35;;;;;;;6.53;3.58;;;9.50;99.90;;;;;;5076403;28;20039;-46
2023/05/03 02:45:04;;;;;;;5.07;3.17;;;9.40;99.90;;;;;;5065241;28;20493;-47
2023/05/03 02:47:31;;;;;;;5.50;3.03;;;9.40;99.90;;;;;;5084266;28;20093;-47
2023/05/03 02:49:58;;;;;;;3.90;3.22;;;9.40;99.90;;;;;;5093542;28;20040;-46
2023/05/03 02:52:34;;;;;;;;;;;9.40;99.90;;;;;;5093626;22;20048;-47
2023/05/03 02:55:01;;;;;;;4.45;2.80;;;9.40;99.90;;;;;;5090468;28;19924;-47
2023/05/03 02:57:28;;;;;;;4.82;3.28;;;9.30;99.90;;;;;;5083007;28;20040;-46
2023/05/03 02:59:57;;;;;;;6.85;3.08;;;9.40;99.90;;;;;;5091052;28;20101;-46
2023/05/03 03:02:25;;;;;;;5.55;3.30;;;9.40;99.90;;;;;;5078448;28;20036;-47
2023/05/03 03:04:52;;;;;;;4.55;3.30;;;9.40;99.90;;;;;;5067316;28;20037;-46
2023/05/03 03:07:19;;;;;;;6.43;3.00;;;9.30;99.90;;;;;;5072063;28;20894;-46
2023/05/03 03:09:46;;;;;;;4.22;3.03;;;9.40;99.90;;;;;;5077875;28;20036;-46
2023/05/03 03:12:13;;;;;;;4.43;2.75;;;9.40;99.90;;;;;;5093202;28;20516;-46
2023/05/03 03:14:40;;;;;;;7.68;3.80;;;9.40;99.90;;;;;;5091782;28;20083;-46
2023/05/03 03:17:08;;;;;;;5.53;3.20;;;9.30;99.90;;;;;;5091972;28;20044;-47
2023/05/03 03:19:35;;;;;;;6.30;3.47;;;9.40;99.90;;;;;;5070682;28;20072;-47
2023/05/03 03:22:02;;;;;;;7.00;3.55;;;9.40;99.90;;;;;;5072678;28;20044;-47
2023/05/03 03:24:29;;;;;;;4.63;3.08;;;9.40;99.90;;;;;;5068868;28;20048;-47
2023/05/03 03:26:57;;;;;;;4.82;2.90;;;9.40;99.90;;;;;;5060461;28;20067;-46
2023/05/03 03:29:24;;;;;;;5.00;3.05;;;9.40;99.90;;;;;;5063397;28;20053;-47
2023/05/03 03:31:51;;;;;;;4.03;3.25;;;9.40;99.90;;;;;;5072064;28;20041;-46
2023/05/03 03:34:19;;;;;;;6.25;3.38;;;9.40;99.90;;;;;;5073805;28;20051;-46
2023/05/03 03:36:45;;;;;;;4.88;3.40;;;9.40;99.90;;;;;;5083746;28;20499;-46
2023/05/03 03:39:13;;;;;;;5.70;3.35;;;9.40;99.90;;;;;;5079757;28;20075;-46
2023/05/03 03:41:41;;;;;;;3.78;2.85;;;9.40;99.90;;;;;;5070269;28;20041;-46
2023/05/03 03:44:09;;;;;;;8.82;3.20;;;9.40;99.90;;;;;;5078542;28;20046;-48
2023/05/03 03:46:36;;;;;;;3.85;3.03;;;9.40;99.90;;;;;;5085359;28;20064;-46
2023/05/03 03:49:03;;;;;;;5.22;2.88;;;9.40;99.90;;;;;;5080459;28;20045;-47
2023/05/03 03:51:30;;;;;;;4.47;3.08;;;9.40;99.90;;;;;;5070729;28;20045;-47
2023/05/03 03:53:57;;;;;;;6.57;4.20;;;9.40;99.90;;;;;;5085383;28;20040;-46
2023/05/03 03:56:28;;;;;;;5.50;4.30;;;9.40;99.90;;;;;;5078099;28;20049;-47
2023/05/03 03:58:55;;;;;;;;;;;9.40;99.90;;;;;;5077262;28;20094;-46
2023/05/03 04:01:23;;;;;;;9.60;4.88;;;9.40;99.90;;;;;;5077703;28;19927;-46
2023/05/03 04:03:49;;;;;;;7.30;4.50;;;9.40;99.90;;;;;;5071483;28;20507;-47
2023/05/03 04:06:16;;;;;;;7.85;4.65;;;9.50;99.90;;;;;;5068996;28;20111;-46
2023/05/03 04:08:45;;;;;;;6.97;3.60;;;9.50;99.90;;;;;;5070183;28;20086;-46
2023/05/03 04:11:13;;;;;;;6.65;3.92;;;9.50;99.90;;;;;;5072021;28;20044;-47
2023/05/03 04:13:47;;;;;;;6.43;3.38;;;9.50;99.90;;;;;;5083351;28;20458;-46
2023/05/03 04:16:14;;;;;;;9.80;4.00;;;9.50;99.90;;;;;;5070553;28;20102;-46
2023/05/03 04:18:44;;;;;;;6.10;3.78;;;9.40;99.90;;;;;;5052453;28;20071;-46
2023/05/03 04:21:11;;;;;;;8.50;3.83;;;9.50;99.90;;;;;;5069307;28;20048;-46
2023/05/03 04:23:39;;;;;;;6.20;3.45;;;9.50;99.90;;;;;;5070388;28;20056;-46
2023/05/03 04:26:09;;;;;;;5.40;3.17;;;9.50;99.90;;;;;;5069199;28;20073;-47
2023/05/03 04:28:51;;;;;;;4.05;2.95;;;9.50;99.90;;;;;;5086794;28;20074;-46
2023/05/03 04:31:20;;;;;;;4.72;3.25;;;9.50;99.90;;;;;;5056267;28;20041;-46
2023/05/03 04:33:51;;;;;;;6.68;3.15;;;9.50;99.90;;;;;;5083267;28;20044;-47
2023/05/03 04:36:18;;;;;;;3.97;2.50;;;9.50;99.90;;;;;;5049559;28;20382;-46
2023/05/03 04:38:46;;;;;;;3.75;3.08;;;9.50;99.90;;;;;;5055529;28;20068;-46
2023/05/03 04:41:13;;;;;;;3.78;2.90;;;9.50;99.90;;;;;;5068745;28;20496;-46
2023/05/03 04:43:42;;;;;;;4.85;2.90;;;9.50;99.90;;;;;;5070436;28;20044;-47
2023/05/03 04:46:10;;;;;;;4.38;2.85;;;9.50;99.90;;;;;;5069405;28;20052;-46
2023/05/03 04:48:37;;;;;;;5.68;2.92;;;9.60;99.90;;;;;;5067514;28;20044;-47
2023/05/03 04:51:04;;;;;;;4.97;3.15;;;9.60;99.90;;;;;;5089984;28;20054;-46
2023/05/03 04:53:31;;;;;;;;;;;9.70;99.90;;;;;;5086065;28;20060;-46
2023/05/03 04:56:04;;;;;;;4.93;2.90;;;9.70;99.90;;;;;;5067893;28;19927;-47
2023/05/03 04:58:33;;;;;;;7.32;3.97;;;9.70;99.90;;;;;;5068393;28;20040;-47
2023/05/03 05:01:01;;;;;;;6.60;3.53;;;9.70;99.90;;;;;;5064164;28;20045;-46
2023/05/03 05:03:32;;;;;;;11.98;3.88;;;9.80;99.90;;;;;;5082658;28;20040;-46
2023/05/03 05:06:05;;;;;;;5.95;3.80;;;9.80;99.90;;;;;;5075314;28;20045;-47
2023/05/03 05:08:33;;;;;;;5.55;3.72;;;9.80;99.90;;;;;;5060451;28;20041;-48
2023/05/03 05:11:03;;;;;;;6.82;3.67;;;9.70;99.90;;;;;;5046176;28;20501;-46
2023/05/03 05:13:31;;;;;;;8.40;4.00;;;9.80;99.90;;;;;;5082375;28;20040;-46
2023/05/03 05:15:57;;;;;;;6.95;3.90;;;9.80;99.90;;;;;;5071855;28;20062;-47
2023/05/03 05:18:24;;;;;;;6.18;4.40;;;9.80;99.90;;;;;;5071104;28;20040;-46
2023/05/03 05:20:52;;;;;;;6.13;4.30;;;9.80;99.90;;;;;;5068882;28;20056;-46
2023/05/03 05:23:19;;;;;;;5.40;3.63;;;9.70;99.90;;;;;;5088432;28;20137;-46
2023/05/03 05:25:47;;;;;;;5.82;3.90;;;9.70;99.90;;;;;;5087760;28;20040;-46
2023/05/03 05:28:14;;;;;;;5.90;3.75;;;9.70;99.90;;;;;;5066261;28;20503;-46
2023/05/03 05:30:42;;;;;;;5.90;4.03;;;9.90;99.90;;;;;;5086079;28;20044;-46
2023/05/03 05:33:09;;;;;;;7.32;4.18;;;10.00;99.90;;;;;;5088202;28;20044;-46
2023/05/03 05:35:36;;;;;;;8.82;4.25;;;10.20;99.90;;;;;;5088587;28;20131;-47
2023/05/03 05:38:03;;;;;;;7.70;4.53;;;10.30;99.90;;;;;;5076906;28;20044;-47
2023/05/03 05:40:31;;;;;;;9.48;4.82;;;10.40;99.90;;;;;;5068845;28;20044;-46
2023/05/03 05:42:59;;;;;;;7.15;5.03;;;10.50;99.90;;;;;;5069519;28;20048;-46
2023/05/03 05:45:28;;;;;;;7.97;6.00;;;10.60;99.90;;;;;;5071641;28;20062;-46
2023/05/03 05:47:56;;;;;;;9.80;5.88;;;10.80;99.90;;;;;;5088317;28;20036;-50
2023/05/03 05:50:23;;;;;;;12.55;5.53;;;10.90;99.90;;;;;;5088743;28;20040;-47
2023/05/03 05:52:55;;;;;;;7.32;5.55;;;11.00;99.90;;;;;;5081475;28;20125;-46
2023/05/03 05:55:25;;;;;;;6.13;4.65;;;11.10;99.90;;;;;;5069466;28;20045;-46
2023/05/03 05:57:53;;;;;;;6.35;4.82;;;11.10;99.90;;;;;;5069493;28;20040;-47
2023/05/03 06:00:24;;;;;;;6.68;4.07;;;11.20;99.90;;;;;;5069047;28;20041;-47
2023/05/03 06:02:51;;;;;;;5.63;3.75;;;11.10;99.90;;;;;;5083147;28;20044;-46
2023/05/03 06:05:21;;;;;;;5.68;4.25;;;11.10;99.90;;;;;;5068735;28;20067;-46
2023/05/03 06:07:48;;;;;;;;;;;11.00;99.90;;;;;;5070573;28;20036;-46
2023/05/03 06:10:16;;;;;;;7.03;4.82;;;10.90;99.90;;;;;;5068204;28;19920;-47
2023/05/03 06:12:46;;;;;;;6.93;5.43;;;11.00;99.90;;;;;;5079800;28;20416;-46
2023/05/03 06:15:17;;;;;;;8.38;5.40;;;11.00;99.90;;;;;;5084662;28;20105;-46
2023/05/03 06:17:45;;;;;;;7.57;5.40;;;11.00;99.90;;;;;;5071727;28;20029;-47
2023/05/03 06:20:12;;;;;;;7.43;5.20;;;11.00;99.90;;;;;;5070993;28;20048;-46
2023/05/03 06:22:40;;;;;;;12.30;5.45;;;11.00;99.90;;;;;;5072195;28;20099;-46
2023/05/03 06:25:09;;;;;;;9.00;4.70;;;11.10;99.90;;;;;;5076540;28;20048;-46
2023/05/03 06:27:37;;;;;;;8.18;4.20;;;11.40;99.90;;;;;;5091720;28;20052;-47
2023/05/03 06:30:05;;;;;;;7.63;4.30;;;11.70;99.90;;;;;;5091317;28;20154;-46
2023/05/03 06:32:32;;;;;;;8.20;4.85;;;12.00;99.90;;;;;;5081656;28;20416;-47
2023/05/03 06:35:00;;;;;;;7.38;4.13;;;12.30;99.90;;;;;;5072721;28;20048;-47
2023/05/03 06:37:27;;;;;;;5.10;3.63;;;12.60;99.90;;;;;;5073934;28;20045;-47
2023/05/03 06:39:54;;;;;;;7.03;3.88;;;12.70;99.90;;;;;;5069303;28;20586;-46
2023/05/03 06:42:21;;;;;;;6.18;3.95;;;12.80;99.90;;;;;;5092377;28;20047;-46
2023/05/03 06:44:53;;;;;;;7.43;4.65;;;13.00;99.90;;;;;;5092431;28;20098;-46
2023/05/03 06:47:20;;;;;;;6.93;4.22;;;13.00;99.90;;;;;;5092496;28;20097;-46
2023/05/03 06:49:47;;;;;;;6.88;5.07;;;12.90;99.90;;;;;;5078707;28;20052;-46
2023/05/03 06:52:14;;;;;;;6.90;4.65;;;12.80;99.90;;;;;;5066516;28;20040;-46
2023/05/03 06:54:40;;;;;;;7.85;4.70;;;12.80;99.90;;;;;;5086953;28;20405;-46
2023/05/03 06:57:07;;;;;;;10.48;5.25;;;12.70;99.90;;;;;;5073066;28;20094;-46
2023/05/03 06:59:34;;;;;;;11.20;5.15;;;12.60;99.90;;;;;;5073362;28;20052;-46
2023/05/03 07:02:01;;;;;;;7.07;4.25;;;12.50;99.90;;;;;;5072555;28;20048;-46
2023/05/03 07:04:28;;;;;;;7.32;5.00;;;12.40;99.90;;;;;;5079905;28;20071;-46
2023/05/03 07:06:55;;;;;;;6.53;4.45;;;12.30;99.90;;;;;;5073098;28;20156;-48
2023/05/03 07:09:22;;;;;;;;;;;12.40;99.90;;;;;;5071970;28;20036;-46
2023/05/03 07:12:07;;;;;;;16.15;4.70;;;12.60;99.90;;;;;;5089421;28;19924;-46
2023/05/03 07:14:34;;;;;;;6.82;5.18;;;12.70;99.90;;;;;;5072388;28;20045;-46
2023/05/03 07:17:01;;;;;;;8.02;4.95;;;12.70;99.90;;;;;;5072654;28;20094;-46
2023/05/03 07:19:28;;;;;;;14.10;5.18;;;12.60;99.90;;;;;;5084187;28;20046;-46
2023/05/03 07:21:55;;;;;;;7.70;5.07;;;12.70;99.90;;;;;;5092910;28;20122;-46
2023/05/03 07:24:24;;;;;;;6.85;4.35;;;12.90;99.90;;;;;;5092693;28;20109;-46
2023/05/03 07:26:52;;;;;;;6.40;4.88;;;13.10;99.90;;;;;;5074521;28;20041;-47
2023/05/03 07:29:19;;;;;;;5.72;4.60;;;13.20;99.90;;;;;;5057862;28;20496;-46
2023/05/03 07:31:46;;;;;;;;;;;13.20;99.90;;;;;;5091652;28;20485;-47
2023/05/03 07:34:13;;;;;;;8.70;4.70;;;13.30;99.90;;;;;;5091955;28;19919;-46
2023/05/03 07:36:40;;;;;;;6.70;4.68;;;13.20;99.90;;;;;;5092954;28;20050;-46
2023/05/03 07:39:07;;;;;;;7.63;4.50;;;13.30;99.90;;;;;;5077025;28;20081;-46
2023/05/03 07:41:34;;;;;;;;;;;13.20;99.90;;;;;;5093063;28;20048;-46
2023/05/03 07:44:01;;;;;;;7.05;4.38;;;13.30;99.90;;;;;;5092856;28;19963;-46
2023/05/03 07:46:27;;;;;;;9.00;4.15;;;13.40;99.90;;;;;;5089601;28;20122;-46
2023/05/03 07:48:54;;;;;;;6.80;4.70;;;13.50;99.90;;;;;;5068797;28;20040;-47
2023/05/03 07:51:21;;;;;;;5.15;4.00;;;13.60;99.90;;;;;;5071730;28;20090;-46
2023/05/03 07:53:47;;;;;;;7.57;4.85;;;13.70;99.90;;;;;;5072245;28;20412;-46
2023/05/03 07:56:14;;;;;;;5.82;3.92;;;13.70;99.90;;;;;;5066491;28;20040;-47
2023/05/03 07:58:41;;;;;;;4.95;4.40;;;13.80;99.90;;;;;;5092085;28;20058;-47
2023/05/03 08:01:10;;;;;;;6.40;4.47;;;13.90;99.90;;;;;;5079093;28;20134;-46
2023/05/03 08:03:37;;;;;;;7.75;4.72;;;13.90;99.90;;;;;;5092228;28;20118;-46
2023/05/03 08:06:04;;;;;;;6.25;4.65;;;13.90;99.90;;;;;;5081320;28;20037;-47
2023/05/03 08:08:32;;;;;;;11.35;5.45;;;13.90;99.90;;;;;;5091564;28;20040;-48
2023/05/03 08:10:59;;;;;;;8.65;5.25;;;14.00;99.90;;;;;;5091310;28;20067;-46
2023/05/03 08:13:26;;;;;;;8.82;4.88;;;14.00;99.90;;;;;;5092192;28;20044;-46
2023/05/03 08:15:53;;;;;;;9.25;5.35;;;14.00;99.90;;;;;;5074621;28;20382;-46
2023/05/03 08:18:20;;;;;;;10.27;4.85;;;14.00;99.90;;;;;;5071363;28;20066;-47
2023/05/03 08:20:49;;;;;;;7.95;5.68;;;14.00;99.90;;;;;;5071821;28;20041;-46
2023/05/03 08:23:16;;;;;;;9.95;5.50;;;14.00;99.90;;;;;;5076491;28;20040;-46
2023/05/03 08:25:44;;;;;;;21.38;6.97;;;14.00;99.90;;;;;;5092015;28;20036;-46
2023/05/03 08:28:11;;;;;;;11.38;6.68;;;14.10;99.90;;;;;;5091578;28;20377;-46
2023/05/03 08:30:38;;;;;;;10.15;6.38;;;14.10;99.90;;;;;;5075047;28;20098;-47
2023/05/03 08:33:04;;;;;;;8.57;6.28;;;14.10;99.90;;;;;;5071702;28;20056;-46
2023/05/03 08:35:31;;;;;;;8.75;6.07;;;14.10;99.90;;;;;;5069226;28;20048;-48
2023/05/03 08:37:58;;;;;;;10.02;6.53;;;14.00;99.90;;;;;;5076088;28;20451;-47
2023/05/03 08:40:27;;;;;;;8.13;6.68;;;13.80;99.90;;;;;;5090922;28;20037;-46
2023/05/03 08:42:58;;;;;;;11.70;7.20;;;13.70;99.90;;;;;;5091402;28;20032;-47
2023/05/03 08:45:25;;;;;;;14.30;7.88;;;13.60;99.90;;;;;;5074344;28;20087;-46
2023/05/03 08:47:54;;;;;;;10.90;8.05;;;13.60;99.90;;;;;;5084116;28;20340;-46
2023/05/03 08:50:22;;;;;;;10.02;7.13;;;13.50;99.90;;;;;;5050489;28;20052;-47
2023/05/03 08:52:49;;;;;;;9.98;7.65;;;13.50;99.90;;;;;;5089798;22;20487;-46
2023/05/03 08:55:16;;;;;;;;;;;13.60;99.90;;;;;;5104714;28;20062;-45
2023/05/03 08:57:43;;;;;;;12.93;7.97;;;13.60;99.90;;;;;;5091052;28;19920;-46
2023/05/03 09:00:11;;;;;;;11.52;7.72;;;13.60;99.90;;;;;;5090251;28;20562;-47
2023/05/03 09:02:39;;;;;;;10.57;7.38;;;13.60;99.90;;;;;;5085173;28;20033;-47
2023/05/03 09:05:30;;;;;;;12.30;8.18;;;13.70;99.90;;;;;;5069683;28;20040;-46
2023/05/03 09:08:09;;;;;;;11.30;7.65;;;13.70;99.90;;;;;;5073493;28;20052;-47
2023/05/03 09:10:40;;;;;;;10.57;7.90;;;14.00;99.90;;;;;;5055445;28;20037;-47
2023/05/03 09:13:08;;;;;;;11.80;7.32;;;14.20;99.90;;;;;;5065532;28;20131;-46
2023/05/03 09:15:35;;;;;;;12.77;7.88;;;14.30;99.90;;;;;;5057778;28;20500;-45
2023/05/03 09:18:17;;;;;;;9.80;7.70;;;14.60;99.90;;;;;;5057593;28;20501;-47
2023/05/03 09:20:52;;;;;;;10.57;7.00;;;14.70;99.90;;;;;;5078431;28;20052;-47
2023/05/03 09:23:25;;;;;;;9.40;6.97;;;15.00;99.90;;;;;;5090287;28;20148;-47
2023/05/03 09:25:52;;;;;;;13.35;7.38;;;15.20;99.90;;;;;;5067045;28;20086;-48
2023/05/03 09:28:20;;;;;;;11.20;7.50;;;15.50;99.90;;;;;;5070528;28;20065;-45
2023/05/03 09:30:47;;;;;;;8.77;6.63;;;15.80;99.90;;;;;;5071136;28;20477;-47
2023/05/03 09:33:19;;;;;;;11.70;5.47;;;15.80;99.90;;;;;;5069525;28;20105;-47
2023/05/03 09:36:01;;;;;;;7.80;5.70;;;15.80;99.90;;;;;;5082809;28;20064;-47
2023/05/03 09:38:30;;;;;;;7.53;5.85;;;16.10;99.90;;;;;;5050596;28;20055;-47
2023/05/03 09:40:57;;;;;;;7.60;5.07;;;16.20;99.90;;;;;;5050721;28;20045;-46
2023/05/03 09:43:24;;;;;;;;;;;16.60;99.90;;;;;;5071054;28;20439;-45
2023/05/03 09:45:51;;;;;;;9.15;6.47;;;16.90;99.90;;;;;;5070496;28;19974;-45
2023/05/03 09:48:22;;;;;;;8.82;5.63;;;17.20;99.90;;;;;;5067465;28;20044;-46
2023/05/03 09:50:50;;;;;;;7.95;5.18;;;17.40;99.90;;;;;;5070840;28;20075;-46
2023/05/03 09:53:18;;;;;;;6.45;4.82;;;17.20;99.90;;;;;;5072301;28;20052;-45
2023/05/03 09:55:46;;;;;;;7.90;5.00;;;17.00;99.90;;;;;;5056658;28;20052;-47
2023/05/03 09:58:14;;;;;;;8.82;4.40;;;17.20;99.90;;;;;;5080685;28;20048;-47
2023/05/03 10:00:42;;;;;;;6.45;5.18;;;17.10;99.90;;;;;;5094428;28;20117;-44
2023/05/03 10:03:11;;;;;;;6.53;4.78;;;16.80;99.90;;;;;;5087511;28;20068;-45
2023/05/03 10:05:48;;;;;;;8.23;5.03;;;16.60;99.90;;;;;;5074373;28;20573;-45
2023/05/03 10:08:38;;;;;;;8.18;4.78;;;16.50;99.90;;;;;;5073832;28;20051;-47
2023/05/03 10:11:07;;;;;;;6.40;4.20;;;16.30;99.90;;;;;;5074302;28;20125;-48
2023/05/03 10:13:35;;;;;;;5.80;4.43;;;16.50;99.90;;;;;;5071488;28;20106;-47
2023/05/03 10:16:05;;;;;;;7.20;5.78;;;16.80;99.90;;;;;;5074109;28;20044;-46
2023/05/03 10:18:36;;;;;;;6.85;4.88;;;17.00;99.90;;;;;;5073615;28;20048;-47
2023/05/03 10:21:10;;;;;;;7.15;5.10;;;16.70;99.90;;;;;;5074287;28;20382;-46
2023/05/03 10:24:08;;;;;;;6.60;5.15;;;17.10;99.90;;;;;;5084714;28;20063;-47
2023/05/03 10:26:34;;;;;;;5.68;4.75;;;17.50;99.90;;;;;;5067388;28;20072;-47
2023/05/03 10:29:01;;;;;;;6.55;4.95;;;17.50;99.90;;;;;;5073507;28;20082;-46
2023/05/03 10:31:45;;;;;;;7.07;4.82;;;17.50;99.90;;;;;;5071715;28;20493;-46
2023/05/03 10:34:29;;;;;;;6.70;4.68;;;17.60;99.90;;;;;;5073587;28;20064;-47
2023/05/03 10:36:56;;;;;;;6.15;5.40;;;17.50;99.90;;;;;;5072959;28;20048;-46
2023/05/03 10:39:23;;;;;;;16.30;4.60;;;17.20;99.90;;;;;;5073482;28;20090;-48
2023/05/03 10:42:02;;;;;;;5.90;4.40;;;17.10;99.90;;;;;;5080541;28;20048;-47
2023/05/03 10:44:37;;;;;;;7.07;3.88;;;17.30;99.90;;;;;;5080509;28;20055;-46
2023/05/03 10:47:22;;;;;;;6.70;4.90;;;17.30;99.90;;;;;;5090130;28;20040;-47
2023/05/03 10:50:10;;;;;;;6.60;4.75;;;17.40;99.90;;;;;;5069087;28;20064;-47
2023/05/03 10:52:37;;;;;;;;;;;17.50;99.90;;;;;;5073604;28;20045;-46
2023/05/03 10:55:16;;;;;;;5.88;3.80;;;17.70;99.90;;;;;;5073852;28;19921;-48
2023/05/03 10:57:46;;;;;;;7.55;4.63;;;17.70;99.90;;;;;;5053453;28;20067;-48
2023/05/03 11:00:18;;;;;;;7.70;3.95;;;17.50;99.90;;;;;;5072699;28;20500;-47
2023/05/03 11:03:08;;;;;;;4.93;4.32;;;17.60;99.90;;;;;;5065184;28;20094;-48
2023/05/03 11:05:37;;;;;;;7.07;4.15;;;17.50;99.90;;;;;;5072160;28;20477;-48
2023/05/03 11:08:11;;;;;;;9.50;5.03;;;17.50;99.90;;;;;;5072829;28;20044;-47
2023/05/03 11:10:39;;;;;;;5.68;4.43;;;17.30;99.90;;;;;;5066463;28;20045;-47
2023/05/03 11:13:06;;;;;;;6.22;5.22;;;17.30;99.90;;;;;;5071507;28;20052;-46
2023/05/03 11:15:33;;;;;;;10.45;5.55;;;17.40;99.90;;;;;;5072436;28;20447;-47
2023/05/03 11:18:00;;;;;;;;;;;17.30;99.90;;;;;;5072336;28;20044;-46
2023/05/03 11:20:28;;;;;;;6.88;4.85;;;17.20;99.90;;;;;;5071627;28;19920;-46
2023/05/03 11:22:55;;;;;;;;;;;17.10;99.90;;;;;;5073199;28;20052;-47
2023/05/03 11:25:21;;;;;;;7.93;4.80;;;17.00;99.90;;;;;;5054659;28;19964;-47
2023/05/03 11:27:48;;;;;;;7.15;4.25;;;17.00;99.90;;;;;;5077933;28;20073;-46
2023/05/03 11:30:16;;;;;;;5.95;4.32;;;16.90;99.90;;;;;;5062533;28;20044;-46
2023/05/03 11:32:43;;;;;;;8.95;4.45;;;17.00;99.90;;;;;;5072616;28;20048;-46
2023/05/03 11:35:16;;;;;;;9.35;5.00;;;17.20;99.90;;;;;;5072539;28;20044;-46
2023/05/03 11:37:44;;;;;;;6.55;4.68;;;17.40;99.90;;;;;;5069968;28;20037;-47
2023/05/03 11:40:15;;;;;;;;;;;17.80;99.90;;;;;;5074797;28;20048;-46
2023/05/03 11:42:57;;;;;;;9.38;4.72;;;17.70;99.90;;;;;;5091593;28;20046;-47
2023/05/03 11:45:45;;;;;;;7.93;4.60;;;17.60;99.90;;;;;;5092494;28;20040;-48
2023/05/03 11:48:12;;;;;;;7.03;4.45;;;17.40;99.90;;;;;;5071695;28;20409;-46
2023/05/03 11:50:53;;;;;;;5.47;4.13;;;17.20;99.90;;;;;;5086905;28;20075;-47
2023/05/03 11:53:24;;;;;;;5.75;4.20;;;17.20;99.90;;;;;;5064236;28;20052;-46
2023/05/03 11:55:53;;;;;;;6.00;3.45;;;17.20;99.90;;;;;;5071468;28;20097;-46
2023/05/03 11:58:24;;;;;;;4.68;3.53;;;17.20;99.90;;;;;;5072003;28;20048;-46
2023/05/03 12:00:52;;;;;;;6.03;4.18;;;17.20;99.90;;;;;;5044711;28;20129;-46
2023/05/03 12:03:21;;;;;;;7.47;4.38;;;17.10;99.90;;;;;;5067842;28;20085;-46
2023/05/03 12:05:52;;;;;;;5.32;3.95;;;16.90;99.90;;;;;;5092110;28;20048;-50
2023/05/03 12:08:20;;;;;;;7.07;4.20;;;16.80;99.90;;;;;;5091803;28;20097;-47
2023/05/03 12:10:49;;;;;;;9.65;4.57;;;16.80;99.90;;;;;;5084373;28;20115;-47
2023/05/03 12:13:27;;;;;;;10.77;4.75;;;16.70;99.90;;;;;;5052257;28;20045;-47
2023/05/03 12:16:00;;;;;;;8.50;4.95;;;16.70;99.90;;;;;;5050885;28;20044;-50
2023/05/03 12:18:51;;;;;;;6.03;4.90;;;16.70;99.90;;;;;;5066519;28;20051;-46
2023/05/03 12:21:24;;;;;;;5.25;4.47;;;16.90;99.90;;;;;;5051396;28;20472;-46
2023/05/03 12:23:53;;;;;;;6.70;4.45;;;17.10;99.90;;;;;;5068336;28;20554;-46
2023/05/03 12:26:24;;;;;;;5.82;4.10;;;17.70;99.90;;;;;;5070474;28;20547;-46
2023/05/03 12:28:51;;;;;;;5.05;4.53;;;18.40;99.90;;;;;;5071450;28;20044;-46
2023/05/03 12:31:22;;;;;;;6.72;4.93;;;18.90;99.90;;;;;;5063401;28;20086;-47
2023/05/03 12:33:49;;;;;;;8.05;4.35;;;19.20;99.90;;;;;;5071362;28;20408;-46
2023/05/03 12:36:37;;;;;;;5.03;3.95;;;19.20;99.90;;;;;;5071368;28;20435;-46
2023/05/03 12:39:06;;;;;;;5.30;3.60;;;19.50;99.90;;;;;;5070826;28;20068;-47
2023/05/03 12:41:36;;;;;;;4.90;3.55;;;19.90;99.90;;;;;;5091670;28;20090;-47
2023/05/03 12:44:05;;;;;;;4.93;4.43;;;19.60;99.90;;;;;;5091585;28;20072;-46
2023/05/03 12:46:37;;;;;;;4.97;3.80;;;19.00;99.90;;;;;;5079767;28;20041;-46
2023/05/03 12:49:05;;;;;;;4.95;4.20;;;18.40;99.90;;;;;;5069263;28;20386;-46
2023/05/03 12:51:34;;;;;;;7.25;4.35;;;17.80;99.90;;;;;;5071100;28;20401;-47
2023/05/03 12:54:05;;;;;;;6.38;4.05;;;17.40;99.90;;;;;;5069449;28;20497;-46
2023/05/03 12:56:36;;;;;;;8.45;4.15;;;17.20;99.90;;;;;;5057536;28;20052;-48
2023/05/03 12:59:06;;;;;;;7.75;3.92;;;17.10;99.90;;;;;;5070970;28;20060;-47
2023/05/03 13:01:53;;;;;;;7.03;4.35;;;17.00;99.90;;;;;;5070976;28;20044;-46
2023/05/03 13:04:23;;;;;;;6.35;4.05;;;17.00;99.90;;;;;;5072176;28;20040;-46
2023/05/03 13:07:13;;;;;;;6.78;4.72;;;16.90;99.90;;;;;;5071268;28;20497;-47